sensor_id;sensor_type;location;lat;lon;timestamp;temperature;humidity
43999;DHT22;51319;52.162;5.302;2024-02-28T00:02:12;3.50;99.90
43999;DHT22;51319;52.162;5.302;2024-02-28T00:04:40;3.50;99.90
43999;DHT22;51319;52.162;5.302;2024-02-28T00:07:07;3.50;99.90
43999;DHT22;51319;52.162;5.302;2024-02-28T00:09:34;3.30;99.90
43999;DHT22;51319;52.162;5.302;2024-02-28T00:12:01;3.30;99.90
43999;DHT22;51319;52.162;5.302;2024-02-28T00:14:28;3.10;99.90
43999;DHT22;51319;52.162;5.302;2024-02-28T00:16:55;3.00;99.90
43999;DHT22;51319;52.162;5.302;2024-02-28T00:19:22;2.90;99.90
43999;DHT22;51319;52.162;5.302;2024-02-28T00:21:49;2.80;99.90
43999;DHT22;51319;52.162;5.302;2024-02-28T00:24:17;2.70;99.90
43999;DHT22;51319;52.162;5.302;2024-02-28T00:26:44;2.60;99.90
43999;DHT22;51319;52.162;5.302;2024-02-28T00:29:11;2.50;99.90
43999;DHT22;51319;52.162;5.302;2024-02-28T00:31:38;2.40;99.90
43999;DHT22;51319;52.162;5.302;2024-02-28T00:34:05;2.30;99.90
43999;DHT22;51319;52.162;5.302;2024-02-28T00:36:33;2.30;99.90
43999;DHT22;51319;52.162;5.302;2024-02-28T00:42:03;2.20;99.90
43999;DHT22;51319;52.162;5.302;2024-02-28T01:01:13;1.90;99.90
43999;DHT22;51319;52.162;5.302;2024-02-28T01:03:40;1.90;99.90
43999;DHT22;51319;52.162;5.302;2024-02-28T01:06:07;1.80;99.90
43999;DHT22;51319;52.162;5.302;2024-02-28T01:08:34;1.80;99.90
43999;DHT22;51319;52.162;5.302;2024-02-28T01:11:02;1.80;99.90
43999;DHT22;51319;52.162;5.302;2024-02-28T01:24:23;1.60;99.90
43999;DHT22;51319;52.162;5.302;2024-02-28T01:26:50;1.60;99.90
43999;DHT22;51319;52.162;5.302;2024-02-28T01:29:17;1.60;99.90
43999;DHT22;51319;52.162;5.302;2024-02-28T01:31:47;1.60;99.90
43999;DHT22;51319;52.162;5.302;2024-02-28T01:34:14;1.60;99.90
43999;DHT22;51319;52.162;5.302;2024-02-28T01:39:16;1.50;99.90
43999;DHT22;51319;52.162;5.302;2024-02-28T01:41:52;1.50;99.90
43999;DHT22;51319;52.162;5.302;2024-02-28T01:47:05;1.50;99.90
43999;DHT22;51319;52.162;5.302;2024-02-28T01:49:34;1.40;99.90
43999;DHT22;51319;52.162;5.302;2024-02-28T01:52:01;1.40;99.90
43999;DHT22;51319;52.162;5.302;2024-02-28T01:54:31;1.40;99.90
43999;DHT22;51319;52.162;5.302;2024-02-28T01:56:59;1.40;99.90
43999;DHT22;51319;52.162;5.302;2024-02-28T02:13:35;1.20;99.90
43999;DHT22;51319;52.162;5.302;2024-02-28T02:16:03;1.20;99.90
43999;DHT22;51319;52.162;5.302;2024-02-28T02:18:30;1.20;99.90
43999;DHT22;51319;52.162;5.302;2024-02-28T02:21:04;1.30;99.90
43999;DHT22;51319;52.162;5.302;2024-02-28T02:23:32;1.40;99.90
43999;DHT22;51319;52.162;5.302;2024-02-28T02:25:59;1.50;99.90
43999;DHT22;51319;52.162;5.302;2024-02-28T02:28:26;1.70;99.90
43999;DHT22;51319;52.162;5.302;2024-02-28T02:30:53;1.80;99.90
43999;DHT22;51319;52.162;5.302;2024-02-28T02:33:20;1.90;99.90
43999;DHT22;51319;52.162;5.302;2024-02-28T02:35:46;2.00;99.90
43999;DHT22;51319;52.162;5.302;2024-02-28T02:38:13;2.10;99.90
43999;DHT22;51319;52.162;5.302;2024-02-28T02:40:40;2.20;99.90
43999;DHT22;51319;52.162;5.302;2024-02-28T02:43:07;2.20;99.90
43999;DHT22;51319;52.162;5.302;2024-02-28T02:45:34;2.30;99.90
43999;DHT22;51319;52.162;5.302;2024-02-28T02:48:01;2.30;99.90
43999;DHT22;51319;52.162;5.302;2024-02-28T02:50:28;2.30;99.90
43999;DHT22;51319;52.162;5.302;2024-02-28T02:52:55;2.30;99.90
43999;DHT22;51319;52.162;5.302;2024-02-28T02:55:22;2.20;99.90
43999;DHT22;51319;52.162;5.302;2024-02-28T02:57:49;2.20;99.90
43999;DHT22;51319;52.162;5.302;2024-02-28T03:05:22;2.40;99.90
43999;DHT22;51319;52.162;5.302;2024-02-28T03:10:34;2.50;99.90
43999;DHT22;51319;52.162;5.302;2024-02-28T03:13:02;2.50;99.90
43999;DHT22;51319;52.162;5.302;2024-02-28T03:15:29;2.60;99.90
43999;DHT22;51319;52.162;5.302;2024-02-28T03:23:27;2.70;99.90
43999;DHT22;51319;52.162;5.302;2024-02-28T03:25:54;2.70;99.90
43999;DHT22;51319;52.162;5.302;2024-02-28T03:28:21;2.80;99.90
43999;DHT22;51319;52.162;5.302;2024-02-28T03:30:48;2.90;99.90
43999;DHT22;51319;52.162;5.302;2024-02-28T03:33:15;2.90;99.90
43999;DHT22;51319;52.162;5.302;2024-02-28T03:35:42;3.00;99.90
43999;DHT22;51319;52.162;5.302;2024-02-28T03:38:09;3.00;99.90
43999;DHT22;51319;52.162;5.302;2024-02-28T03:40:36;3.00;99.90
43999;DHT22;51319;52.162;5.302;2024-02-28T03:53:54;3.40;99.90
43999;DHT22;51319;52.162;5.302;2024-02-28T03:56:27;3.40;99.90
43999;DHT22;51319;52.162;5.302;2024-02-28T03:58:56;3.40;99.90
43999;DHT22;51319;52.162;5.302;2024-02-28T04:01:22;3.40;99.90
43999;DHT22;51319;52.162;5.302;2024-02-28T04:14:23;3.60;99.90
43999;DHT22;51319;52.162;5.302;2024-02-28T04:16:50;3.60;99.90
43999;DHT22;51319;52.162;5.302;2024-02-28T04:19:17;3.60;99.90
43999;DHT22;51319;52.162;5.302;2024-02-28T04:21:44;3.70;99.90
43999;DHT22;51319;52.162;5.302;2024-02-28T04:24:13;3.70;99.90
43999;DHT22;51319;52.162;5.302;2024-02-28T04:26:43;3.70;99.90
43999;DHT22;51319;52.162;5.302;2024-02-28T05:15:53;4.00;99.90
43999;DHT22;51319;52.162;5.302;2024-02-28T05:18:20;4.00;99.90
43999;DHT22;51319;52.162;5.302;2024-02-28T05:20:47;4.00;99.90
43999;DHT22;51319;52.162;5.302;2024-02-28T05:25:47;4.00;99.90
43999;DHT22;51319;52.162;5.302;2024-02-28T05:28:15;4.00;99.90
43999;DHT22;51319;52.162;5.302;2024-02-28T05:30:42;4.10;99.90
43999;DHT22;51319;52.162;5.302;2024-02-28T05:33:14;4.10;99.90
43999;DHT22;51319;52.162;5.302;2024-02-28T05:35:41;4.10;99.90
43999;DHT22;51319;52.162;5.302;2024-02-28T05:48:54;4.20;99.90
43999;DHT22;51319;52.162;5.302;2024-02-28T05:51:21;4.20;99.90
43999;DHT22;51319;52.162;5.302;2024-02-28T06:04:37;4.20;99.90
43999;DHT22;51319;52.162;5.302;2024-02-28T06:07:04;4.20;99.90
43999;DHT22;51319;52.162;5.302;2024-02-28T06:09:32;4.20;99.90
43999;DHT22;51319;52.162;5.302;2024-02-28T06:11:59;4.10;99.90
43999;DHT22;51319;52.162;5.302;2024-02-28T06:14:27;4.20;99.90
43999;DHT22;51319;52.162;5.302;2024-02-28T06:16:54;4.20;99.90
43999;DHT22;51319;52.162;5.302;2024-02-28T06:19:21;4.20;99.90
43999;DHT22;51319;52.162;5.302;2024-02-28T06:21:48;4.20;99.90
43999;DHT22;51319;52.162;5.302;2024-02-28T06:24:15;4.20;99.90
43999;DHT22;51319;52.162;5.302;2024-02-28T06:26:42;4.20;99.90
43999;DHT22;51319;52.162;5.302;2024-02-28T06:29:13;4.30;99.90
43999;DHT22;51319;52.162;5.302;2024-02-28T06:31:41;4.20;99.90
43999;DHT22;51319;52.162;5.302;2024-02-28T06:34:07;4.30;99.90
43999;DHT22;51319;52.162;5.302;2024-02-28T06:36:37;4.30;99.90
43999;DHT22;51319;52.162;5.302;2024-02-28T06:39:04;4.30;99.90
43999;DHT22;51319;52.162;5.302;2024-02-28T06:41:31;4.30;99.90
43999;DHT22;51319;52.162;5.302;2024-02-28T06:43:58;4.30;99.90
43999;DHT22;51319;52.162;5.302;2024-02-28T06:46:25;4.30;99.90
43999;DHT22;51319;52.162;5.302;2024-02-28T06:48:52;4.30;99.90
43999;DHT22;51319;52.162;5.302;2024-02-28T06:51:20;4.30;99.90
43999;DHT22;51319;52.162;5.302;2024-02-28T06:53:47;4.40;99.90
43999;DHT22;51319;52.162;5.302;2024-02-28T06:56:14;4.40;99.90
43999;DHT22;51319;52.162;5.302;2024-02-28T06:58:41;4.40;99.90
43999;DHT22;51319;52.162;5.302;2024-02-28T07:01:08;4.50;99.90
43999;DHT22;51319;52.162;5.302;2024-02-28T07:03:36;4.40;99.90
43999;DHT22;51319;52.162;5.302;2024-02-28T07:06:03;4.50;99.90
43999;DHT22;51319;52.162;5.302;2024-02-28T07:08:34;4.50;99.90
43999;DHT22;51319;52.162;5.302;2024-02-28T07:11:03;4.50;99.90
43999;DHT22;51319;52.162;5.302;2024-02-28T07:13:30;4.60;99.90
43999;DHT22;51319;52.162;5.302;2024-02-28T07:15:57;4.60;99.90
43999;DHT22;51319;52.162;5.302;2024-02-28T07:18:24;4.60;99.90
43999;DHT22;51319;52.162;5.302;2024-02-28T07:20:56;4.60;99.90
43999;DHT22;51319;52.162;5.302;2024-02-28T07:23:23;4.70;99.90
43999;DHT22;51319;52.162;5.302;2024-02-28T07:25:50;4.70;99.90
43999;DHT22;51319;52.162;5.302;2024-02-28T07:28:17;4.70;99.90
43999;DHT22;51319;52.162;5.302;2024-02-28T07:30:44;4.70;99.90
43999;DHT22;51319;52.162;5.302;2024-02-28T07:33:12;4.80;99.90
43999;DHT22;51319;52.162;5.302;2024-02-28T07:35:46;4.80;99.90
43999;DHT22;51319;52.162;5.302;2024-02-28T07:38:13;4.80;99.90
43999;DHT22;51319;52.162;5.302;2024-02-28T07:40:40;4.90;99.90
43999;DHT22;51319;52.162;5.302;2024-02-28T07:43:08;4.90;99.90
43999;DHT22;51319;52.162;5.302;2024-02-28T07:45:35;4.90;99.90
43999;DHT22;51319;52.162;5.302;2024-02-28T07:48:02;5.00;99.90
43999;DHT22;51319;52.162;5.302;2024-02-28T07:50:29;5.00;99.90
43999;DHT22;51319;52.162;5.302;2024-02-28T07:52:55;5.00;99.90
43999;DHT22;51319;52.162;5.302;2024-02-28T07:55:22;5.10;99.90
43999;DHT22;51319;52.162;5.302;2024-02-28T07:57:53;5.10;99.90
43999;DHT22;51319;52.162;5.302;2024-02-28T08:00:21;5.10;99.90
43999;DHT22;51319;52.162;5.302;2024-02-28T08:02:50;5.10;99.90
43999;DHT22;51319;52.162;5.302;2024-02-28T08:05:17;5.10;99.90
43999;DHT22;51319;52.162;5.302;2024-02-28T08:07:45;5.10;99.90
43999;DHT22;51319;52.162;5.302;2024-02-28T08:10:12;5.10;99.90
43999;DHT22;51319;52.162;5.302;2024-02-28T08:12:41;5.20;99.90
43999;DHT22;51319;52.162;5.302;2024-02-28T08:15:08;5.20;99.90
43999;DHT22;51319;52.162;5.302;2024-02-28T08:17:35;5.30;99.90
43999;DHT22;51319;52.162;5.302;2024-02-28T08:20:04;5.30;99.90
43999;DHT22;51319;52.162;5.302;2024-02-28T08:22:32;5.40;99.90
43999;DHT22;51319;52.162;5.302;2024-02-28T08:24:58;5.40;99.90
43999;DHT22;51319;52.162;5.302;2024-02-28T08:27:25;5.40;99.90
43999;DHT22;51319;52.162;5.302;2024-02-28T08:29:55;5.50;99.90
43999;DHT22;51319;52.162;5.302;2024-02-28T08:32:22;5.50;99.90
43999;DHT22;51319;52.162;5.302;2024-02-28T08:34:49;5.60;99.90
43999;DHT22;51319;52.162;5.302;2024-02-28T08:37:16;5.70;99.90
43999;DHT22;51319;52.162;5.302;2024-02-28T08:39:44;5.80;99.90
43999;DHT22;51319;52.162;5.302;2024-02-28T08:42:11;5.90;99.90
43999;DHT22;51319;52.162;5.302;2024-02-28T08:44:38;6.00;99.90
43999;DHT22;51319;52.162;5.302;2024-02-28T08:47:06;6.20;99.90
43999;DHT22;51319;52.162;5.302;2024-02-28T08:49:36;6.20;99.90
43999;DHT22;51319;52.162;5.302;2024-02-28T08:52:03;6.20;99.90
43999;DHT22;51319;52.162;5.302;2024-02-28T08:54:30;6.10;99.90
43999;DHT22;51319;52.162;5.302;2024-02-28T08:56:57;6.10;99.90
43999;DHT22;51319;52.162;5.302;2024-02-28T08:59:29;6.20;99.90
43999;DHT22;51319;52.162;5.302;2024-02-28T09:01:56;6.20;99.90
43999;DHT22;51319;52.162;5.302;2024-02-28T09:04:23;6.30;99.90
43999;DHT22;51319;52.162;5.302;2024-02-28T09:06:50;6.40;99.90
43999;DHT22;51319;52.162;5.302;2024-02-28T09:09:26;6.50;99.90
43999;DHT22;51319;52.162;5.302;2024-02-28T09:11:55;6.60;99.90
43999;DHT22;51319;52.162;5.302;2024-02-28T09:14:21;6.80;99.90
43999;DHT22;51319;52.162;5.302;2024-02-28T09:16:48;7.10;99.90
43999;DHT22;51319;52.162;5.302;2024-02-28T09:19:15;7.40;99.90
43999;DHT22;51319;52.162;5.302;2024-02-28T09:21:44;7.70;99.90
43999;DHT22;51319;52.162;5.302;2024-02-28T09:24:11;8.10;99.90
43999;DHT22;51319;52.162;5.302;2024-02-28T09:26:39;8.20;99.90
43999;DHT22;51319;52.162;5.302;2024-02-28T09:29:07;8.30;99.90
43999;DHT22;51319;52.162;5.302;2024-02-28T09:31:34;8.40;99.90
43999;DHT22;51319;52.162;5.302;2024-02-28T09:34:02;8.60;99.90
43999;DHT22;51319;52.162;5.302;2024-02-28T09:36:41;8.60;99.60
43999;DHT22;51319;52.162;5.302;2024-02-28T09:39:09;8.80;99.30
43999;DHT22;51319;52.162;5.302;2024-02-28T09:41:37;9.00;98.50
43999;DHT22;51319;52.162;5.302;2024-02-28T09:44:06;9.20;98.20
43999;DHT22;51319;52.162;5.302;2024-02-28T09:46:34;9.50;97.60
43999;DHT22;51319;52.162;5.302;2024-02-28T09:49:03;9.80;97.00
43999;DHT22;51319;52.162;5.302;2024-02-28T09:51:35;9.90;95.90
43999;DHT22;51319;52.162;5.302;2024-02-28T09:54:03;9.90;95.00
43999;DHT22;51319;52.162;5.302;2024-02-28T09:56:34;9.80;94.70
43999;DHT22;51319;52.162;5.302;2024-02-28T09:59:02;9.80;94.60
43999;DHT22;51319;52.162;5.302;2024-02-28T10:01:30;9.70;94.30
43999;DHT22;51319;52.162;5.302;2024-02-28T10:04:02;9.70;94.30
43999;DHT22;51319;52.162;5.302;2024-02-28T10:06:29;9.70;94.00
43999;DHT22;51319;52.162;5.302;2024-02-28T10:08:56;9.60;93.80
43999;DHT22;51319;52.162;5.302;2024-02-28T10:14:03;9.50;93.70
43999;DHT22;51319;52.162;5.302;2024-02-28T10:16:30;9.50;93.60
43999;DHT22;51319;52.162;5.302;2024-02-28T10:18:57;9.70;93.70
43999;DHT22;51319;52.162;5.302;2024-02-28T10:21:24;9.80;93.40
43999;DHT22;51319;52.162;5.302;2024-02-28T10:23:53;10.00;93.20
43999;DHT22;51319;52.162;5.302;2024-02-28T10:26:20;10.20;93.00
43999;DHT22;51319;52.162;5.302;2024-02-28T10:28:50;10.80;92.60
43999;DHT22;51319;52.162;5.302;2024-02-28T10:31:22;11.20;91.10
43999;DHT22;51319;52.162;5.302;2024-02-28T10:33:49;11.10;90.10
43999;DHT22;51319;52.162;5.302;2024-02-28T10:36:17;11.20;90.20
43999;DHT22;51319;52.162;5.302;2024-02-28T10:38:44;11.40;89.80
43999;DHT22;51319;52.162;5.302;2024-02-28T10:41:12;11.70;89.30
43999;DHT22;51319;52.162;5.302;2024-02-28T10:43:44;12.00;87.20
43999;DHT22;51319;52.162;5.302;2024-02-28T10:46:14;12.20;86.10
43999;DHT22;51319;52.162;5.302;2024-02-28T10:49:02;12.30;85.30
43999;DHT22;51319;52.162;5.302;2024-02-28T10:51:30;12.60;85.10
43999;DHT22;51319;52.162;5.302;2024-02-28T10:54:10;13.20;83.70
43999;DHT22;51319;52.162;5.302;2024-02-28T10:56:42;14.30;82.00
43999;DHT22;51319;52.162;5.302;2024-02-28T10:59:11;15.10;77.80
43999;DHT22;51319;52.162;5.302;2024-02-28T11:01:43;14.80;76.10
43999;DHT22;51319;52.162;5.302;2024-02-28T11:04:13;14.40;75.80
43999;DHT22;51319;52.162;5.302;2024-02-28T11:06:51;13.90;75.10
43999;DHT22;51319;52.162;5.302;2024-02-28T11:09:28;13.20;76.00
43999;DHT22;51319;52.162;5.302;2024-02-28T11:11:57;12.80;78.20
43999;DHT22;51319;52.162;5.302;2024-02-28T11:14:24;12.60;79.00
43999;DHT22;51319;52.162;5.302;2024-02-28T11:17:25;12.30;79.70
43999;DHT22;51319;52.162;5.302;2024-02-28T11:19:54;12.00;80.20
43999;DHT22;51319;52.162;5.302;2024-02-28T11:22:28;11.80;81.30
43999;DHT22;51319;52.162;5.302;2024-02-28T11:24:56;12.00;82.60
43999;DHT22;51319;52.162;5.302;2024-02-28T11:27:25;12.40;82.60
43999;DHT22;51319;52.162;5.302;2024-02-28T11:29:56;12.70;81.50
43999;DHT22;51319;52.162;5.302;2024-02-28T11:32:30;12.90;81.00
43999;DHT22;51319;52.162;5.302;2024-02-28T11:35:02;13.20;79.80
43999;DHT22;51319;52.162;5.302;2024-02-28T11:37:31;13.20;79.20
43999;DHT22;51319;52.162;5.302;2024-02-28T11:39:59;13.10;78.70
43999;DHT22;51319;52.162;5.302;2024-02-28T11:42:26;13.00;79.10
43999;DHT22;51319;52.162;5.302;2024-02-28T11:44:54;12.80;79.30
43999;DHT22;51319;52.162;5.302;2024-02-28T11:47:28;12.50;79.40
43999;DHT22;51319;52.162;5.302;2024-02-28T11:50:01;12.30;80.50
43999;DHT22;51319;52.162;5.302;2024-02-28T11:52:31;12.10;81.40
43999;DHT22;51319;52.162;5.302;2024-02-28T11:55:02;12.10;82.10
43999;DHT22;51319;52.162;5.302;2024-02-28T11:57:29;12.00;82.20
43999;DHT22;51319;52.162;5.302;2024-02-28T12:00:07;11.90;82.20
43999;DHT22;51319;52.162;5.302;2024-02-28T12:02:34;11.80;82.60
43999;DHT22;51319;52.162;5.302;2024-02-28T12:05:02;11.80;82.80
43999;DHT22;51319;52.162;5.302;2024-02-28T12:07:34;11.80;82.80
43999;DHT22;51319;52.162;5.302;2024-02-28T12:10:02;11.90;83.10
43999;DHT22;51319;52.162;5.302;2024-02-28T12:12:29;11.90;83.30
43999;DHT22;51319;52.162;5.302;2024-02-28T12:14:59;11.90;83.20
43999;DHT22;51319;52.162;5.302;2024-02-28T12:17:28;11.90;83.30
43999;DHT22;51319;52.162;5.302;2024-02-28T12:19:56;12.00;83.10
43999;DHT22;51319;52.162;5.302;2024-02-28T12:22:25;12.00;82.90
43999;DHT22;51319;52.162;5.302;2024-02-28T12:24:52;12.10;83.00
43999;DHT22;51319;52.162;5.302;2024-02-28T12:27:20;12.30;82.60
43999;DHT22;51319;52.162;5.302;2024-02-28T12:29:47;12.30;82.40
43999;DHT22;51319;52.162;5.302;2024-02-28T12:32:14;12.20;82.10
43999;DHT22;51319;52.162;5.302;2024-02-28T12:34:43;12.10;82.30
43999;DHT22;51319;52.162;5.302;2024-02-28T12:37:10;12.00;82.60
43999;DHT22;51319;52.162;5.302;2024-02-28T12:39:37;12.00;83.10
43999;DHT22;51319;52.162;5.302;2024-02-28T12:42:05;12.10;83.30
43999;DHT22;51319;52.162;5.302;2024-02-28T12:44:33;12.00;83.00
43999;DHT22;51319;52.162;5.302;2024-02-28T12:47:00;12.00;83.30
43999;DHT22;51319;52.162;5.302;2024-02-28T12:49:27;11.90;83.70
43999;DHT22;51319;52.162;5.302;2024-02-28T13:07:59;12.00;84.40
43999;DHT22;51319;52.162;5.302;2024-02-28T13:10:26;12.10;84.40
43999;DHT22;51319;52.162;5.302;2024-02-28T13:21:00;12.50;82.20
43999;DHT22;51319;52.162;5.302;2024-02-28T13:23:35;12.40;81.80
43999;DHT22;51319;52.162;5.302;2024-02-28T13:26:04;12.40;82.70
43999;DHT22;51319;52.162;5.302;2024-02-28T13:36:31;12.30;82.00
43999;DHT22;51319;52.162;5.302;2024-02-28T13:39:01;12.30;82.20
43999;DHT22;51319;52.162;5.302;2024-02-28T13:41:27;12.30;82.20
43999;DHT22;51319;52.162;5.302;2024-02-28T13:43:54;12.20;82.50
43999;DHT22;51319;52.162;5.302;2024-02-28T13:46:21;12.00;82.70
43999;DHT22;51319;52.162;5.302;2024-02-28T13:48:49;11.90;83.10
43999;DHT22;51319;52.162;5.302;2024-02-28T13:53:51;11.80;83.60
43999;DHT22;51319;52.162;5.302;2024-02-28T13:56:21;11.60;83.50
43999;DHT22;51319;52.162;5.302;2024-02-28T13:58:48;11.40;83.70
43999;DHT22;51319;52.162;5.302;2024-02-28T14:01:20;11.30;84.60
43999;DHT22;51319;52.162;5.302;2024-02-28T14:03:47;11.30;85.30
43999;DHT22;51319;52.162;5.302;2024-02-28T14:06:14;11.20;85.70
43999;DHT22;51319;52.162;5.302;2024-02-28T14:08:41;11.20;86.50
43999;DHT22;51319;52.162;5.302;2024-02-28T14:11:10;11.20;86.10
43999;DHT22;51319;52.162;5.302;2024-02-28T14:13:37;11.20;86.40
43999;DHT22;51319;52.162;5.302;2024-02-28T14:16:06;11.30;86.60
43999;DHT22;51319;52.162;5.302;2024-02-28T14:18:34;11.40;86.50
43999;DHT22;51319;52.162;5.302;2024-02-28T14:21:02;11.30;86.30
43999;DHT22;51319;52.162;5.302;2024-02-28T14:23:33;11.30;86.40
43999;DHT22;51319;52.162;5.302;2024-02-28T14:26:00;11.20;86.40
43999;DHT22;51319;52.162;5.302;2024-02-28T14:28:27;11.10;86.40
43999;DHT22;51319;52.162;5.302;2024-02-28T14:30:54;11.10;87.00
43999;DHT22;51319;52.162;5.302;2024-02-28T14:33:21;11.00;87.30
43999;DHT22;51319;52.162;5.302;2024-02-28T14:35:49;11.00;87.40
43999;DHT22;51319;52.162;5.302;2024-02-28T14:38:16;10.90;87.50
43999;DHT22;51319;52.162;5.302;2024-02-28T14:40:43;10.90;87.70
43999;DHT22;51319;52.162;5.302;2024-02-28T14:43:10;10.80;87.90
43999;DHT22;51319;52.162;5.302;2024-02-28T14:45:37;10.80;88.10
43999;DHT22;51319;52.162;5.302;2024-02-28T14:48:07;10.80;88.40
43999;DHT22;51319;52.162;5.302;2024-02-28T14:50:34;10.80;88.60
43999;DHT22;51319;52.162;5.302;2024-02-28T14:53:02;10.80;88.90
43999;DHT22;51319;52.162;5.302;2024-02-28T14:55:29;10.80;89.00
43999;DHT22;51319;52.162;5.302;2024-02-28T14:57:56;10.80;89.20
43999;DHT22;51319;52.162;5.302;2024-02-28T15:00:24;10.70;89.30
43999;DHT22;51319;52.162;5.302;2024-02-28T15:02:52;10.70;89.80
43999;DHT22;51319;52.162;5.302;2024-02-28T15:05:21;10.70;89.80
43999;DHT22;51319;52.162;5.302;2024-02-28T15:07:47;10.60;89.90
43999;DHT22;51319;52.162;5.302;2024-02-28T15:10:15;10.60;90.00
43999;DHT22;51319;52.162;5.302;2024-02-28T15:12:43;10.60;90.10
43999;DHT22;51319;52.162;5.302;2024-02-28T15:15:12;10.50;90.20
43999;DHT22;51319;52.162;5.302;2024-02-28T15:17:39;10.50;90.30
43999;DHT22;51319;52.162;5.302;2024-02-28T15:20:07;10.50;90.30
43999;DHT22;51319;52.162;5.302;2024-02-28T15:22:35;10.40;90.40
43999;DHT22;51319;52.162;5.302;2024-02-28T15:25:02;10.40;90.60
43999;DHT22;51319;52.162;5.302;2024-02-28T15:27:30;10.40;90.70
43999;DHT22;51319;52.162;5.302;2024-02-28T15:29:57;10.30;90.70
43999;DHT22;51319;52.162;5.302;2024-02-28T15:32:24;10.20;90.90
43999;DHT22;51319;52.162;5.302;2024-02-28T15:34:51;10.20;91.00
43999;DHT22;51319;52.162;5.302;2024-02-28T15:37:18;10.10;91.10
43999;DHT22;51319;52.162;5.302;2024-02-28T15:39:45;10.10;91.30
43999;DHT22;51319;52.162;5.302;2024-02-28T15:42:13;10.10;91.50
43999;DHT22;51319;52.162;5.302;2024-02-28T15:44:40;10.00;91.60
43999;DHT22;51319;52.162;5.302;2024-02-28T15:47:08;10.00;91.70
43999;DHT22;51319;52.162;5.302;2024-02-28T15:49:38;10.10;91.90
43999;DHT22;51319;52.162;5.302;2024-02-28T15:52:10;10.10;92.10
43999;DHT22;51319;52.162;5.302;2024-02-28T15:54:37;10.10;92.10
43999;DHT22;51319;52.162;5.302;2024-02-28T15:57:08;10.10;92.20
43999;DHT22;51319;52.162;5.302;2024-02-28T15:59:36;10.10;92.20
43999;DHT22;51319;52.162;5.302;2024-02-28T16:02:05;10.10;92.30
43999;DHT22;51319;52.162;5.302;2024-02-28T16:04:33;10.10;92.50
43999;DHT22;51319;52.162;5.302;2024-02-28T16:07:02;10.10;92.60
43999;DHT22;51319;52.162;5.302;2024-02-28T16:09:30;10.10;92.60
43999;DHT22;51319;52.162;5.302;2024-02-28T16:11:57;10.00;92.80
43999;DHT22;51319;52.162;5.302;2024-02-28T16:14:24;10.00;92.80
43999;DHT22;51319;52.162;5.302;2024-02-28T16:16:51;10.00;92.80
43999;DHT22;51319;52.162;5.302;2024-02-28T16:19:18;9.90;92.90
43999;DHT22;51319;52.162;5.302;2024-02-28T16:21:53;9.90;93.00
43999;DHT22;51319;52.162;5.302;2024-02-28T16:24:21;9.80;93.20
43999;DHT22;51319;52.162;5.302;2024-02-28T16:26:48;9.70;93.40
43999;DHT22;51319;52.162;5.302;2024-02-28T16:29:15;9.60;93.70
43999;DHT22;51319;52.162;5.302;2024-02-28T16:31:43;9.50;94.00
43999;DHT22;51319;52.162;5.302;2024-02-28T16:34:17;9.40;94.30
43999;DHT22;51319;52.162;5.302;2024-02-28T16:36:46;9.40;94.80
43999;DHT22;51319;52.162;5.302;2024-02-28T16:39:14;9.30;95.10
43999;DHT22;51319;52.162;5.302;2024-02-28T16:41:43;9.20;95.50
43999;DHT22;51319;52.162;5.302;2024-02-28T16:44:10;9.20;95.80
43999;DHT22;51319;52.162;5.302;2024-02-28T16:46:37;9.20;96.20
43999;DHT22;51319;52.162;5.302;2024-02-28T16:49:04;9.20;96.60
43999;DHT22;51319;52.162;5.302;2024-02-28T16:51:31;9.20;97.10
43999;DHT22;51319;52.162;5.302;2024-02-28T16:53:58;9.20;97.40
43999;DHT22;51319;52.162;5.302;2024-02-28T16:56:26;9.20;97.60
43999;DHT22;51319;52.162;5.302;2024-02-28T16:58:53;9.10;97.90
43999;DHT22;51319;52.162;5.302;2024-02-28T17:01:23;9.10;98.20
43999;DHT22;51319;52.162;5.302;2024-02-28T17:03:54;9.10;98.50
43999;DHT22;51319;52.162;5.302;2024-02-28T17:06:25;9.00;98.70
43999;DHT22;51319;52.162;5.302;2024-02-28T17:08:52;9.00;99.00
43999;DHT22;51319;52.162;5.302;2024-02-28T17:11:20;9.00;99.30
43999;DHT22;51319;52.162;5.302;2024-02-28T17:13:48;9.00;99.60
43999;DHT22;51319;52.162;5.302;2024-02-28T17:16:15;9.00;99.90
43999;DHT22;51319;52.162;5.302;2024-02-28T17:18:44;9.00;99.90
43999;DHT22;51319;52.162;5.302;2024-02-28T17:21:14;9.00;99.90
43999;DHT22;51319;52.162;5.302;2024-02-28T17:23:41;9.00;99.90
43999;DHT22;51319;52.162;5.302;2024-02-28T17:26:09;9.00;99.90
43999;DHT22;51319;52.162;5.302;2024-02-28T17:28:36;9.00;99.90
43999;DHT22;51319;52.162;5.302;2024-02-28T17:31:03;8.90;99.90
43999;DHT22;51319;52.162;5.302;2024-02-28T17:33:30;9.00;99.90
43999;DHT22;51319;52.162;5.302;2024-02-28T17:35:57;9.00;99.90
43999;DHT22;51319;52.162;5.302;2024-02-28T17:43:45;8.90;99.90
43999;DHT22;51319;52.162;5.302;2024-02-28T17:46:12;9.00;99.90
43999;DHT22;51319;52.162;5.302;2024-02-28T18:10:45;8.90;99.90
43999;DHT22;51319;52.162;5.302;2024-02-28T18:13:16;8.80;99.90
43999;DHT22;51319;52.162;5.302;2024-02-28T18:15:50;8.90;99.90
43999;DHT22;51319;52.162;5.302;2024-02-28T18:18:19;8.80;99.90
43999;DHT22;51319;52.162;5.302;2024-02-28T18:20:48;8.80;99.90
43999;DHT22;51319;52.162;5.302;2024-02-28T18:23:19;8.80;99.90
43999;DHT22;51319;52.162;5.302;2024-02-28T18:26:00;8.80;99.90
43999;DHT22;51319;52.162;5.302;2024-02-28T18:28:27;8.80;99.90
43999;DHT22;51319;52.162;5.302;2024-02-28T18:30:59;8.80;99.90
43999;DHT22;51319;52.162;5.302;2024-02-28T18:33:34;8.80;99.90
43999;DHT22;51319;52.162;5.302;2024-02-28T18:36:05;8.80;99.90
43999;DHT22;51319;52.162;5.302;2024-02-28T18:38:32;8.80;99.90
43999;DHT22;51319;52.162;5.302;2024-02-28T18:41:01;8.70;99.90
43999;DHT22;51319;52.162;5.302;2024-02-28T18:43:31;8.80;99.90
43999;DHT22;51319;52.162;5.302;2024-02-28T18:46:00;8.80;99.90
43999;DHT22;51319;52.162;5.302;2024-02-28T18:48:29;8.80;99.90
43999;DHT22;51319;52.162;5.302;2024-02-28T18:51:07;8.80;99.90
43999;DHT22;51319;52.162;5.302;2024-02-28T18:53:34;8.70;99.90
43999;DHT22;51319;52.162;5.302;2024-02-28T18:56:32;8.80;99.90
43999;DHT22;51319;52.162;5.302;2024-02-28T18:59:12;8.80;99.90
43999;DHT22;51319;52.162;5.302;2024-02-28T19:01:40;8.80;99.90
43999;DHT22;51319;52.162;5.302;2024-02-28T19:04:07;8.80;99.90
43999;DHT22;51319;52.162;5.302;2024-02-28T19:06:38;8.80;99.90
43999;DHT22;51319;52.162;5.302;2024-02-28T19:09:20;8.80;99.90
43999;DHT22;51319;52.162;5.302;2024-02-28T19:11:49;8.80;99.90
43999;DHT22;51319;52.162;5.302;2024-02-28T19:14:16;8.80;99.90
43999;DHT22;51319;52.162;5.302;2024-02-28T19:16:51;8.80;99.90
43999;DHT22;51319;52.162;5.302;2024-02-28T19:19:19;8.80;99.90
43999;DHT22;51319;52.162;5.302;2024-02-28T19:22:13;8.80;99.90
43999;DHT22;51319;52.162;5.302;2024-02-28T19:24:53;8.80;99.90
43999;DHT22;51319;52.162;5.302;2024-02-28T19:27:22;8.80;99.90
43999;DHT22;51319;52.162;5.302;2024-02-28T19:29:52;8.80;99.90